Cow Head, Canada
Current Conditions -  °F | °C
As of 8:00 AM on Thursday 23 Oct 2014 (Local Time) from CWDH Reporting Station
Clear Clear  
Wind Chill: 31°   Ceiling: Unl
Heat Index: 31°   Visibility: 9mi
Dew Point: 25°   Wind: 3mph
Humidity: 79%   Direction: 130°SE
Pressure: 30.37"   Gusts: NA
Location:  49.92°N, 57.9°W
Report Text: CWDH 231000Z AUTO 13003KT 9SM NSC M00/M04 A3037 RMK SLP286 T10051037 WSI/SWOB
Loading
Personal Weather Stations






























Interactive Weather Map
Tropical Storm Tracking
New forecast layout! Learn more

10-Day Weather Forecast

Advertisements
Track Severe Weather on mobile